createdAt,value
2018-04-02T00:02:17.972Z,0.80
2018-04-02T00:04:45.589Z,0.80
2018-04-02T00:07:13.406Z,1.10
2018-04-02T00:09:41.173Z,0.90
2018-04-02T00:12:08.790Z,0.70
2018-04-02T00:14:36.403Z,0.70
2018-04-02T00:17:04.257Z,0.60
2018-04-02T00:19:32.632Z,0.70
2018-04-02T00:22:01.020Z,0.70
2018-04-02T00:24:30.010Z,0.60
2018-04-02T00:26:57.976Z,0.90
2018-04-02T00:29:25.636Z,0.60
2018-04-02T00:31:55.112Z,0.50
2018-04-02T00:34:22.730Z,1.00
2018-04-02T00:36:50.353Z,0.70
2018-04-02T00:39:18.785Z,0.60
2018-04-02T00:41:46.461Z,0.70
2018-04-02T00:44:14.144Z,0.70
2018-04-02T00:46:41.810Z,0.60
2018-04-02T00:49:09.434Z,0.80
2018-04-02T00:51:37.049Z,0.90
2018-04-02T00:54:04.702Z,0.60
2018-04-02T00:56:32.313Z,0.90
2018-04-02T00:58:59.977Z,0.50
2018-04-02T01:01:27.607Z,0.60
2018-04-02T01:03:55.264Z,0.90
2018-04-02T01:06:22.885Z,0.50
2018-04-02T01:08:50.540Z,0.70
2018-04-02T01:11:18.160Z,0.60
2018-04-02T01:13:46.010Z,0.50
2018-04-02T01:16:13.633Z,0.70
2018-04-02T01:18:41.288Z,0.70
2018-04-02T01:21:09.162Z,0.60
2018-04-02T01:23:37.545Z,0.60
2018-04-02T01:26:05.973Z,0.60
2018-04-02T01:28:33.701Z,0.80
2018-04-02T01:31:01.365Z,0.50
2018-04-02T01:33:29.780Z,0.50
2018-04-02T01:35:57.560Z,0.40
2018-04-02T01:38:25.209Z,0.80
2018-04-02T01:40:52.865Z,0.90
2018-04-02T01:43:20.517Z,0.70
2018-04-02T01:45:48.221Z,0.40
2018-04-02T01:48:16.673Z,0.90
2018-04-02T01:50:44.923Z,0.50
2018-04-02T01:53:12.541Z,0.40
2018-04-02T01:55:40.961Z,0.30
2018-04-02T01:58:08.665Z,0.50
2018-04-02T02:00:36.315Z,0.60
2018-04-02T02:03:03.984Z,0.30
2018-04-02T02:05:31.634Z,0.50
2018-04-02T02:07:59.306Z,0.50
2018-04-02T02:10:27.165Z,0.40
2018-04-02T02:12:54.926Z,0.20
2018-04-02T02:15:22.548Z,0.30
2018-04-02T02:17:50.161Z,0.40
2018-04-02T02:20:17.824Z,0.60
2018-04-02T02:22:45.613Z,0.30
2018-04-02T02:25:14.028Z,0.30
2018-04-02T02:27:41.644Z,0.20
2018-04-02T02:30:09.313Z,0.30
2018-04-02T02:32:36.933Z,0.50
2018-04-02T02:35:04.648Z,0.50
2018-04-02T02:37:32.266Z,0.30
2018-04-02T02:39:59.935Z,0.50
2018-04-02T02:42:27.545Z,0.20
2018-04-02T02:44:55.160Z,0.10
2018-04-02T02:47:23.620Z,0.20
2018-04-02T02:49:51.288Z,0.00
2018-04-02T02:52:18.961Z,0.10
2018-04-02T02:54:46.603Z,0.10
2018-04-02T02:57:14.297Z,0.00
2018-04-02T02:59:41.922Z,0.10
2018-04-02T03:02:09.598Z,0.10
2018-04-02T03:04:38.166Z,0.10
2018-04-02T03:07:05.927Z,0.00
2018-04-02T03:09:33.590Z,0.10
2018-04-02T03:12:01.212Z,0.10
2018-04-02T03:14:28.866Z,0.00
2018-04-02T03:16:56.521Z,0.10
2018-04-02T03:19:24.184Z,0.00
2018-04-02T03:21:51.805Z,0.10
2018-04-02T03:24:19.653Z,0.00
2018-04-02T03:26:47.269Z,0.10
2018-04-02T03:29:15.512Z,0.00
2018-04-02T03:31:43.897Z,0.00
2018-04-02T03:34:12.316Z,0.00
2018-04-02T03:36:40.006Z,0.00
2018-04-02T03:39:07.675Z,0.10
2018-04-02T03:41:35.324Z,0.10
2018-04-02T03:44:02.990Z,0.00
2018-04-02T03:46:30.624Z,0.10
2018-04-02T03:48:58.286Z,0.10
2018-04-02T03:51:25.938Z,0.10
2018-04-02T03:53:53.594Z,0.10
2018-04-02T03:56:21.213Z,-0.10
2018-04-02T03:58:49.656Z,-0.20
2018-04-02T04:01:17.319Z,-0.20
2018-04-02T04:03:46.812Z,-0.10
2018-04-02T04:06:14.448Z,-0.10
2018-04-02T04:08:42.112Z,-0.10
2018-04-02T04:11:09.740Z,-0.10
2018-04-02T04:13:37.357Z,-0.10
2018-04-02T04:16:05.022Z,-0.10
2018-04-02T04:18:32.702Z,-0.10
2018-04-02T04:21:00.346Z,0.00
2018-04-02T04:23:28.020Z,0.00
2018-04-02T04:25:55.679Z,-0.10
2018-04-02T04:28:23.324Z,-0.10
2018-04-02T04:30:50.956Z,-0.10
2018-04-02T04:33:18.618Z,-0.20
2018-04-02T04:35:46.241Z,-0.10
2018-04-02T04:38:14.686Z,-0.10
2018-04-02T04:40:42.345Z,-0.20
2018-04-02T04:43:10.020Z,-0.30
2018-04-02T04:45:37.636Z,-0.20
2018-04-02T04:48:05.313Z,-0.10
2018-04-02T04:50:32.933Z,-0.30
2018-04-02T04:53:01.370Z,-0.40
2018-04-02T04:55:29.029Z,-0.40
2018-04-02T04:57:56.659Z,-0.40
2018-04-02T05:00:24.285Z,-0.40
2018-04-02T05:02:52.729Z,-0.40
2018-04-02T05:05:20.469Z,-0.30
2018-04-02T05:07:48.136Z,-0.30
2018-04-02T05:10:16.308Z,-0.40
2018-04-02T05:12:43.934Z,-0.20
2018-04-02T05:15:11.607Z,-0.20
2018-04-02T05:17:39.282Z,-0.20
2018-04-02T05:20:07.713Z,-0.10
2018-04-02T05:22:35.583Z,-0.20
2018-04-02T05:25:03.207Z,-0.10
2018-04-02T05:27:31.453Z,-0.10
2018-04-02T05:29:59.092Z,0.00
2018-04-02T05:32:26.750Z,0.00
2018-04-02T05:34:54.850Z,0.10
2018-04-02T05:37:22.510Z,0.00
2018-04-02T05:39:50.313Z,0.10
2018-04-02T05:42:17.976Z,0.00
2018-04-02T05:44:45.774Z,0.30
2018-04-02T05:47:14.137Z,0.50
2018-04-02T05:49:41.792Z,0.40
2018-04-02T05:52:09.419Z,0.60
2018-04-02T05:54:37.094Z,0.30
2018-04-02T05:57:04.717Z,0.50
2018-04-02T05:59:32.381Z,0.40
2018-04-02T06:02:00.673Z,0.90
2018-04-02T06:04:28.295Z,0.70
2018-04-02T06:06:56.524Z,0.60
2018-04-02T06:09:24.215Z,1.10
2018-04-02T06:11:51.888Z,0.90
2018-04-02T06:14:19.544Z,1.40
2018-04-02T06:16:47.341Z,1.30
2018-04-02T06:19:15.203Z,1.30
2018-04-02T06:21:44.189Z,1.70
2018-04-02T06:24:13.224Z,2.00
2018-04-02T06:26:41.826Z,1.90
2018-04-02T06:29:21.161Z,2.10
2018-04-02T06:31:48.817Z,2.20
2018-04-02T06:34:16.438Z,2.60
2018-04-02T06:36:44.847Z,2.60
2018-04-02T06:39:13.278Z,2.40
2018-04-02T06:41:41.468Z,2.30
2018-04-02T06:44:09.092Z,2.50
2018-04-02T06:46:37.186Z,2.80
2018-04-02T06:49:04.829Z,2.70
2018-04-02T06:51:35.024Z,3.10
2018-04-02T06:54:03.745Z,3.20
2018-04-02T06:56:31.747Z,3.50
2018-04-02T06:58:59.601Z,3.30
2018-04-02T07:01:27.357Z,3.40
2018-04-02T07:03:55.165Z,3.70
2018-04-02T07:06:23.586Z,4.00
2018-04-02T07:08:51.224Z,3.80
2018-04-02T07:11:19.486Z,4.10
2018-04-02T07:13:47.716Z,4.00
2018-04-02T07:16:15.563Z,4.00
2018-04-02T07:18:43.236Z,4.00
2018-04-02T07:21:10.850Z,3.70
2018-04-02T07:23:38.542Z,3.60
2018-04-02T07:26:06.148Z,4.10
2018-04-02T07:28:33.799Z,4.00
2018-04-02T07:31:01.429Z,4.00
2018-04-02T07:33:29.444Z,4.00
2018-04-02T07:35:57.266Z,3.80
2018-04-02T07:38:24.887Z,4.00
2018-04-02T07:40:52.557Z,4.00
2018-04-02T07:43:22.231Z,4.30
2018-04-02T07:45:49.880Z,4.30
2018-04-02T07:48:18.315Z,4.20
2018-04-02T07:50:45.928Z,4.20
2018-04-02T07:53:13.848Z,4.50
2018-04-02T07:55:41.669Z,4.30
2018-04-02T07:58:09.372Z,4.30
2018-04-02T08:00:37.437Z,4.40
2018-04-02T08:03:05.064Z,4.80
2018-04-02T08:05:32.687Z,4.60
2018-04-02T08:08:01.817Z,4.80
2018-04-02T08:10:29.809Z,4.60
2018-04-02T08:12:57.795Z,5.10
2018-04-02T08:15:25.824Z,5.00
2018-04-02T08:17:53.794Z,5.30
2018-04-02T08:20:22.419Z,5.30
2018-04-02T08:22:50.036Z,5.70
2018-04-02T08:25:17.746Z,5.60
2018-04-02T08:27:45.369Z,5.90
2018-04-02T08:30:13.465Z,5.30
2018-04-02T08:32:41.151Z,5.60
2018-04-02T08:35:08.768Z,5.60
2018-04-02T08:37:36.413Z,5.60
2018-04-02T08:40:04.641Z,5.60
2018-04-02T08:42:32.493Z,6.10
2018-04-02T08:45:00.106Z,6.30
2018-04-02T08:47:27.757Z,6.20
2018-04-02T08:49:56.179Z,6.10
2018-04-02T08:52:23.833Z,6.10
2018-04-02T08:54:51.450Z,6.30
2018-04-02T08:57:19.093Z,6.70
2018-04-02T08:59:47.301Z,6.90
2018-04-02T09:02:14.945Z,6.50
2018-04-02T09:04:42.560Z,6.70
2018-04-02T09:07:10.398Z,6.40
2018-04-02T09:09:38.050Z,6.70
2018-04-02T09:12:05.700Z,6.80
2018-04-02T09:14:33.348Z,7.00
2018-04-02T09:17:01.726Z,7.00
2018-04-02T09:19:30.109Z,7.10
2018-04-02T09:21:57.765Z,7.10
2018-04-02T09:24:25.390Z,7.10
2018-04-02T09:26:53.817Z,7.40
2018-04-02T09:29:21.432Z,7.10
2018-04-02T09:31:49.277Z,7.30
2018-04-02T09:34:16.961Z,7.30
2018-04-02T09:36:44.605Z,7.30
2018-04-02T09:39:12.219Z,7.00
2018-04-02T09:41:39.835Z,7.00
2018-04-02T09:44:07.694Z,7.40
2018-04-02T09:46:35.305Z,7.40
2018-04-02T09:49:03.385Z,7.30
2018-04-02T09:51:31.625Z,7.40
2018-04-02T09:53:59.864Z,7.30
2018-04-02T09:56:27.524Z,7.40
2018-04-02T09:58:55.180Z,7.40
2018-04-02T10:01:22.801Z,7.30
2018-04-02T10:03:55.277Z,7.30
2018-04-02T10:06:23.607Z,7.20
2018-04-02T10:08:51.262Z,7.40
2018-04-02T10:11:18.873Z,7.60
2018-04-02T10:13:46.567Z,7.70
2018-04-02T10:16:14.185Z,7.50
2018-04-02T10:18:41.889Z,7.30
2018-04-02T10:21:09.581Z,7.70
2018-04-02T10:23:37.193Z,7.80
2018-04-02T10:26:04.810Z,7.70
2018-04-02T10:28:34.269Z,7.70
2018-04-02T10:31:01.965Z,7.50
2018-04-02T10:33:29.576Z,7.70
2018-04-02T10:35:57.238Z,7.80
2018-04-02T10:38:24.844Z,8.10
2018-04-02T10:40:52.485Z,7.60
2018-04-02T10:43:20.188Z,7.80
2018-04-02T10:45:47.844Z,7.70
2018-04-02T10:48:16.221Z,8.20
2018-04-02T10:50:44.594Z,8.30
2018-04-02T10:53:13.009Z,8.50
2018-04-02T10:55:41.389Z,8.50
2018-04-02T10:58:09.692Z,8.20
2018-04-02T11:00:37.309Z,8.50
2018-04-02T11:03:04.960Z,8.50
2018-04-02T11:05:32.573Z,8.70
2018-04-02T11:08:00.223Z,9.00
2018-04-02T11:10:27.883Z,8.50
2018-04-02T11:12:55.497Z,8.30
2018-04-02T11:15:23.145Z,8.50
2018-04-02T11:17:51.553Z,8.50
2018-04-02T11:20:19.190Z,8.80
2018-04-02T11:22:47.018Z,8.50
2018-04-02T11:25:15.193Z,9.10
2018-04-02T11:27:42.883Z,8.40
2018-04-02T11:30:11.260Z,8.10
2018-04-02T11:32:39.672Z,8.20
2018-04-02T11:35:07.369Z,8.10
2018-04-02T11:37:35.017Z,8.10
2018-04-02T11:40:02.885Z,8.40
2018-04-02T11:42:30.542Z,8.60
2018-04-02T11:44:58.626Z,8.90
2018-04-02T11:47:26.238Z,8.80
2018-04-02T11:49:54.132Z,8.90
2018-04-02T11:52:21.758Z,8.50
2018-04-02T11:54:49.408Z,8.50
2018-04-02T11:57:17.105Z,8.60
2018-04-02T11:59:44.749Z,8.70
2018-04-02T12:02:12.384Z,8.50
2018-04-02T12:04:40.029Z,8.50
2018-04-02T12:07:07.688Z,8.70
2018-04-02T12:09:35.404Z,8.90
2018-04-02T12:12:03.188Z,9.20
2018-04-02T12:14:30.845Z,9.10
2018-04-02T12:16:58.452Z,9.00
2018-04-02T12:19:26.865Z,9.00
2018-04-02T12:21:54.590Z,8.80
2018-04-02T12:24:22.969Z,8.60
2018-04-02T12:26:51.388Z,8.50
2018-04-02T12:29:19.232Z,8.50
2018-04-02T12:31:46.885Z,8.60
2018-04-02T12:34:14.509Z,8.60
2018-04-02T12:36:42.173Z,8.80
2018-04-02T12:39:09.831Z,8.90
2018-04-02T12:41:37.483Z,9.10
2018-04-02T12:44:05.088Z,8.80
2018-04-02T12:46:32.930Z,9.50
2018-04-02T12:49:00.543Z,9.60
2018-04-02T12:51:28.205Z,9.70
2018-04-02T12:53:56.153Z,9.80
2018-04-02T12:56:23.776Z,9.60
2018-04-02T12:58:52.165Z,9.70
2018-04-02T13:01:20.890Z,10.10
2018-04-02T13:03:49.134Z,10.10
2018-04-02T13:06:16.750Z,9.60
2018-04-02T13:08:44.574Z,9.90
2018-04-02T13:11:12.266Z,9.40
2018-04-02T13:13:39.929Z,9.50
2018-04-02T13:16:07.585Z,9.30
2018-04-02T13:18:35.208Z,9.20
2018-04-02T13:21:02.856Z,9.50
2018-04-02T13:23:30.517Z,9.60
2018-04-02T13:25:58.166Z,9.60
2018-04-02T13:28:26.586Z,9.50
2018-04-02T13:30:54.224Z,9.60
2018-04-02T13:33:22.005Z,9.20
2018-04-02T13:35:49.777Z,9.50
2018-04-02T13:38:17.446Z,9.70
2018-04-02T13:40:45.217Z,9.60
2018-04-02T13:43:12.873Z,9.50
2018-04-02T13:45:41.868Z,9.90
2018-04-02T13:48:10.469Z,9.80
2018-04-02T13:50:38.196Z,10.00
2018-04-02T13:53:05.834Z,10.00
2018-04-02T13:55:33.634Z,9.90
2018-04-02T13:58:01.250Z,9.80
2018-04-02T14:00:31.361Z,9.90
2018-04-02T14:02:58.973Z,9.90
2018-04-02T14:05:27.997Z,9.60
2018-04-02T14:07:55.610Z,9.60
2018-04-02T14:10:23.287Z,9.90
2018-04-02T14:12:50.905Z,9.60
2018-04-02T14:15:18.589Z,9.60
2018-04-02T14:17:46.437Z,9.70
2018-04-02T14:20:14.401Z,10.00
2018-04-02T14:22:42.068Z,10.30
2018-04-02T14:25:09.684Z,10.20
2018-04-02T14:27:38.120Z,10.40
2018-04-02T14:30:06.246Z,10.30
2018-04-02T14:32:35.999Z,10.80
2018-04-02T14:35:06.121Z,10.50
2018-04-02T14:37:35.393Z,10.60
2018-04-02T14:40:03.054Z,10.20
2018-04-02T14:42:30.677Z,10.20
2018-04-02T14:44:58.331Z,9.90
2018-04-02T14:47:30.015Z,10.00
2018-04-02T14:49:57.728Z,10.00
2018-04-02T14:52:25.887Z,10.00
2018-04-02T14:54:55.514Z,9.70
2018-04-02T14:57:26.091Z,10.00
2018-04-02T14:59:54.789Z,9.90
2018-04-02T15:02:23.588Z,10.30
2018-04-02T15:04:51.473Z,10.30
2018-04-02T15:07:19.089Z,10.10
2018-04-02T15:09:47.616Z,9.90
2018-04-02T15:12:16.030Z,10.10
2018-04-02T15:14:45.016Z,9.80
2018-04-02T15:17:13.992Z,10.00
2018-04-02T15:19:42.516Z,10.00
2018-04-02T15:22:10.462Z,9.70
2018-04-02T15:24:39.016Z,9.80
2018-04-02T15:27:06.812Z,10.10
2018-04-02T15:29:35.306Z,9.90
2018-04-02T15:32:02.961Z,9.70
2018-04-02T15:34:30.639Z,9.80
2018-04-02T15:36:58.302Z,10.00
2018-04-02T15:39:25.975Z,9.50
2018-04-02T15:41:53.586Z,9.30
2018-04-02T15:44:21.294Z,9.70
2018-04-02T15:46:48.939Z,9.30
2018-04-02T15:49:16.612Z,9.30
2018-04-02T15:51:44.238Z,9.50
2018-04-02T15:54:12.155Z,9.50
2018-04-02T15:56:42.370Z,9.20
2018-04-02T15:59:10.034Z,9.50
2018-04-02T16:01:37.689Z,9.20
2018-04-02T16:04:06.024Z,9.20
2018-04-02T16:06:33.825Z,9.40
2018-04-02T16:09:01.527Z,9.20
2018-04-02T16:11:29.944Z,9.60
2018-04-02T16:13:57.610Z,9.00
2018-04-02T16:16:25.237Z,9.10
2018-04-02T16:18:54.438Z,9.50
2018-04-02T16:21:22.161Z,9.60
2018-04-02T16:23:49.781Z,9.20
2018-04-02T16:26:17.433Z,9.20
2018-04-02T16:28:46.001Z,9.50
2018-04-02T16:31:15.062Z,9.20
2018-04-02T16:33:43.316Z,9.10
2018-04-02T16:36:10.971Z,8.80
2018-04-02T16:38:39.985Z,8.90
2018-04-02T16:41:07.621Z,9.00
2018-04-02T16:43:35.237Z,9.10
2018-04-02T16:46:03.895Z,9.00
2018-04-02T16:48:31.583Z,9.20
2018-04-02T16:50:59.370Z,8.90
2018-04-02T16:53:27.017Z,8.80
2018-04-02T16:55:54.678Z,8.70
2018-04-02T16:58:22.291Z,8.80
2018-04-02T17:00:49.942Z,8.80
2018-04-02T17:03:17.620Z,8.70
2018-04-02T17:05:45.269Z,8.80
2018-04-02T17:08:12.921Z,8.90
2018-04-02T17:10:40.900Z,8.80
2018-04-02T17:13:08.847Z,8.80
2018-04-02T17:15:36.461Z,8.80
2018-04-02T17:18:06.197Z,8.70
2018-04-02T17:20:33.882Z,8.70
2018-04-02T17:23:01.578Z,8.80
2018-04-02T17:25:29.249Z,8.60
2018-04-02T17:27:56.913Z,8.50
2018-04-02T17:30:24.553Z,8.40
2018-04-02T17:32:52.981Z,8.50
2018-04-02T17:35:23.205Z,8.50
2018-04-02T17:37:50.892Z,8.50
2018-04-02T17:40:20.272Z,8.60
2018-04-02T17:42:48.509Z,8.40
2018-04-02T17:45:16.170Z,8.00
2018-04-02T17:47:44.552Z,8.50
2018-04-02T17:50:12.933Z,8.20
2018-04-02T17:52:40.584Z,8.40
2018-04-02T17:55:08.218Z,8.10
2018-04-02T17:57:35.873Z,8.10
2018-04-02T18:00:03.712Z,8.30
2018-04-02T18:02:31.790Z,8.20
2018-04-02T18:05:00.301Z,8.20
2018-04-02T18:07:28.147Z,7.90
2018-04-02T18:11:40.354Z,8.30
2018-04-02T18:14:07.977Z,7.80
2018-04-02T18:16:35.664Z,8.00
2018-04-02T18:19:03.329Z,8.00
2018-04-02T18:21:31.505Z,8.20
2018-04-02T18:23:59.489Z,7.70
2018-04-02T18:26:27.637Z,7.80
2018-04-02T18:28:55.264Z,7.70
2018-04-02T18:31:22.914Z,7.60
2018-04-02T18:33:50.594Z,7.60
2018-04-02T18:36:18.214Z,7.60
2018-04-02T18:38:45.893Z,7.70
2018-04-02T18:41:13.510Z,7.60
2018-04-02T18:43:41.869Z,7.60
2018-04-02T18:46:09.554Z,7.60
2018-04-02T18:48:37.173Z,7.60
2018-04-02T18:51:04.829Z,7.60
2018-04-02T18:53:32.458Z,7.60
2018-04-02T18:56:00.276Z,7.60
2018-04-02T18:58:27.908Z,7.40
2018-04-02T19:00:55.566Z,7.50
2018-04-02T19:03:23.888Z,7.60
2018-04-02T19:05:51.540Z,7.40
2018-04-02T19:08:19.505Z,7.20
2018-04-02T19:10:47.157Z,7.30
2018-04-02T19:13:14.965Z,7.30
2018-04-02T19:15:42.721Z,7.20
2018-04-02T19:18:10.369Z,7.30
2018-04-02T19:20:37.989Z,7.30
2018-04-02T19:23:05.673Z,7.30
2018-04-02T19:25:33.320Z,7.10
2018-04-02T19:28:01.172Z,7.30
2018-04-02T19:30:28.801Z,6.70
2018-04-02T19:32:56.424Z,7.20
2018-04-02T19:35:24.092Z,6.90
2018-04-02T19:37:51.759Z,7.00
2018-04-02T19:40:19.613Z,6.90
2018-04-02T19:42:47.283Z,6.80
2018-04-02T19:45:14.897Z,6.90
2018-04-02T19:47:42.602Z,7.00
2018-04-02T19:50:10.257Z,7.00
2018-04-02T19:52:37.957Z,6.90
2018-04-02T19:55:06.506Z,6.90
2018-04-02T19:57:34.891Z,6.70
2018-04-02T20:00:02.514Z,6.80
2018-04-02T20:02:30.181Z,6.90
2018-04-02T20:04:57.862Z,6.70
2018-04-02T20:07:25.497Z,6.90
2018-04-02T20:09:54.044Z,6.90
2018-04-02T20:12:21.681Z,6.80
2018-04-02T20:14:49.329Z,6.90
2018-04-02T20:17:16.941Z,6.60
2018-04-02T20:19:44.601Z,6.60
2018-04-02T20:22:12.269Z,6.70
2018-04-02T20:24:39.928Z,6.90
2018-04-02T20:27:07.562Z,6.80
2018-04-02T20:29:35.226Z,7.00
2018-04-02T20:32:03.638Z,6.90
2018-04-02T20:34:31.410Z,7.00
2018-04-02T20:36:59.076Z,7.00
2018-04-02T20:39:26.749Z,6.90
2018-04-02T20:41:54.389Z,7.00
2018-04-02T20:44:21.997Z,6.70
2018-04-02T20:46:49.654Z,6.90
2018-04-02T20:49:17.369Z,6.90
2018-04-02T20:51:45.021Z,7.00
2018-04-02T20:54:12.862Z,6.80
2018-04-02T20:56:40.532Z,6.90
2018-04-02T20:59:08.158Z,6.70
2018-04-02T21:01:35.825Z,6.70
2018-04-02T21:04:04.211Z,7.00
2018-04-02T21:06:32.621Z,6.90
2018-04-02T21:09:00.252Z,7.00
2018-04-02T21:11:27.958Z,6.80
2018-04-02T21:13:56.245Z,6.90
2018-04-02T21:16:24.086Z,7.10
2018-04-02T21:18:51.763Z,7.20
2018-04-02T21:21:19.517Z,7.30
2018-04-02T21:23:47.129Z,7.30
2018-04-02T21:26:14.741Z,7.20
2018-04-02T21:28:42.429Z,7.20
2018-04-02T21:31:10.085Z,7.00
2018-04-02T21:33:37.937Z,7.20
2018-04-02T21:36:05.591Z,6.90
2018-04-02T21:38:33.253Z,6.90
2018-04-02T21:41:00.922Z,6.80
2018-04-02T21:43:28.581Z,6.80
2018-04-02T21:45:56.242Z,6.90
2018-04-02T21:48:23.905Z,6.80
2018-04-02T21:50:51.555Z,6.90
2018-04-02T21:53:19.390Z,6.30
2018-04-02T21:55:47.041Z,6.70
2018-04-02T21:58:14.705Z,6.90
2018-04-02T22:00:42.313Z,6.70
2018-04-02T22:03:11.469Z,6.70
2018-04-02T22:05:39.165Z,6.60
2018-04-02T22:08:10.054Z,6.90
2018-04-02T22:10:37.743Z,6.60
2018-04-02T22:13:05.384Z,6.50
2018-04-02T22:15:33.746Z,6.60
2018-04-02T22:18:01.401Z,6.60
2018-04-02T22:20:29.067Z,6.80
2018-04-02T22:22:56.685Z,6.90
2018-04-02T22:25:25.844Z,6.60
2018-04-02T22:27:53.464Z,7.00
2018-04-02T22:30:21.117Z,6.80
2018-04-02T22:32:48.731Z,7.10
2018-04-02T22:35:16.393Z,6.90
2018-04-02T22:37:44.396Z,6.70
2018-04-02T22:40:12.076Z,7.00
2018-04-02T22:42:41.598Z,6.70
2018-04-02T22:45:09.261Z,6.70
2018-04-02T22:47:36.904Z,6.90
2018-04-02T22:50:05.285Z,6.80
2018-04-02T22:52:33.532Z,6.70
2018-04-02T22:55:01.753Z,6.90
2018-04-02T22:57:29.453Z,6.50
2018-04-02T22:59:57.752Z,6.30
2018-04-02T23:02:25.414Z,6.70
2018-04-02T23:04:53.077Z,6.70
2018-04-02T23:07:21.502Z,6.30
2018-04-02T23:09:49.149Z,6.60
2018-04-02T23:12:17.004Z,6.90
2018-04-02T23:14:45.231Z,6.90
2018-04-02T23:17:12.843Z,6.60
2018-04-02T23:19:40.501Z,6.60
2018-04-02T23:22:08.152Z,6.50
2018-04-02T23:24:35.848Z,6.60
2018-04-02T23:27:03.519Z,6.90
2018-04-02T23:29:31.293Z,6.60
2018-04-02T23:31:58.933Z,6.60
2018-04-02T23:34:26.582Z,6.90
2018-04-02T23:36:54.253Z,6.60
2018-04-02T23:39:21.952Z,6.90
2018-04-02T23:41:49.565Z,6.70
2018-04-02T23:44:17.180Z,6.90
2018-04-02T23:46:44.832Z,6.90
2018-04-02T23:49:12.501Z,6.80
2018-04-02T23:51:40.912Z,6.50
2018-04-02T23:54:09.313Z,6.50
2018-04-02T23:56:36.944Z,6.60
2018-04-02T23:59:04.560Z,6.60
